FCA3MB LHBP-EDLN
Flight info
| Callsign | FCA3MB |
|---|---|
| Flight time | 1h 57m |
| Altitude | 43000 |
| Route | GILEP DCT BEGLA DCT DEXIT DCT LALIN L604 RUDNO M736 AKOSI DCT KUMER DCT TOLTA DCT NVO |
| Aircraft | E55P/M-SBDFGRWY/SU1 |
Departure
| Time | 2026-05-07 19:52 |
|---|---|
| Airport | Budapest Liszt Ferenc International Airport (LHBP) |
Arrival
| Time | 2026-05-07 21:49 |
|---|---|
| Airport | Mönchengladbach Airport (EDLN) |
| Time | Latitude | Longitude | Altitude | Speed | Heading |
|---|---|---|---|---|---|
| 2026-05-07 19:25 | 47.43962 | 19.22755 | 438 ft | 0 kts | 326° |
| 2026-05-07 19:47 | 47.43963 | 19.22754 | 438 ft | 0 kts | 326° |
| 2026-05-07 19:48 | 47.43969 | 19.22740 | 438 ft | 2 kts | 277° |
| 2026-05-07 19:48 | 47.43963 | 19.22700 | 438 ft | 5 kts | 250° |
| 2026-05-07 19:48 | 47.43935 | 19.22646 | 438 ft | 8 kts | 200° |
| 2026-05-07 19:48 | 47.43878 | 19.22688 | 438 ft | 10 kts | 142° |
| 2026-05-07 19:49 | 47.43810 | 19.22763 | 437 ft | 13 kts | 143° |
| 2026-05-07 19:49 | 47.43728 | 19.22854 | 436 ft | 12 kts | 143° |
| 2026-05-07 19:49 | 47.43702 | 19.22947 | 436 ft | 10 kts | 81° |
| 2026-05-07 19:49 | 47.43714 | 19.23058 | 436 ft | 11 kts | 82° |
| 2026-05-07 19:50 | 47.43726 | 19.23172 | 436 ft | 11 kts | 82° |
| 2026-05-07 19:50 | 47.43737 | 19.23293 | 436 ft | 12 kts | 82° |
| 2026-05-07 19:50 | 47.43752 | 19.23434 | 436 ft | 15 kts | 79° |
| 2026-05-07 19:50 | 47.43768 | 19.23598 | 435 ft | 17 kts | 80° |
| 2026-05-07 19:51 | 47.43812 | 19.23753 | 435 ft | 13 kts | 23° |
| 2026-05-07 19:51 | 47.43890 | 19.23660 | 436 ft | 33 kts | 313° |
| 2026-05-07 19:51 | 47.44238 | 19.23102 | 440 ft | 110 kts | 313° |
| 2026-05-07 19:51 | 47.44887 | 19.22155 | 722 ft | 141 kts | 319° |
| 2026-05-07 19:52 | 47.45663 | 19.21236 | 1338 ft | 144 kts | 322° |
| 2026-05-07 19:52 | 47.46339 | 19.20191 | 1937 ft | 145 kts | 307° |
| 2026-05-07 19:52 | 47.46933 | 19.19008 | 2626 ft | 140 kts | 299° |
| 2026-05-07 19:52 | 47.47532 | 19.17829 | 3036 ft | 153 kts | 308° |
| 2026-05-07 19:53 | 47.48216 | 19.16514 | 3315 ft | 167 kts | 298° |
| 2026-05-07 19:53 | 47.48690 | 19.14833 | 3458 ft | 187 kts | 282° |
| 2026-05-07 19:53 | 47.48810 | 19.12877 | 3583 ft | 204 kts | 266° |
| 2026-05-07 19:53 | 47.48423 | 19.10768 | 3617 ft | 220 kts | 240° |
| 2026-05-07 19:54 | 47.47466 | 19.08999 | 3814 ft | 224 kts | 224° |
| 2026-05-07 19:54 | 47.46191 | 19.07694 | 4094 ft | 224 kts | 212° |
| 2026-05-07 19:54 | 47.44817 | 19.06598 | 4357 ft | 225 kts | 208° |
| 2026-05-07 19:54 | 47.43414 | 19.05588 | 4610 ft | 227 kts | 207° |
| 2026-05-07 19:55 | 47.41919 | 19.04538 | 5277 ft | 242 kts | 207° |
| 2026-05-07 19:55 | 47.40444 | 19.03524 | 6467 ft | 233 kts | 207° |
| 2026-05-07 19:55 | 47.39014 | 19.02536 | 7544 ft | 229 kts | 208° |
| 2026-05-07 19:55 | 47.37878 | 19.00978 | 8399 ft | 231 kts | 245° |
| 2026-05-07 19:56 | 47.37600 | 18.98646 | 9261 ft | 237 kts | 271° |
| 2026-05-07 19:56 | 47.37893 | 18.96241 | 10104 ft | 243 kts | 283° |
| 2026-05-07 19:56 | 47.38396 | 18.93875 | 10979 ft | 246 kts | 287° |
| 2026-05-07 19:56 | 47.38972 | 18.91505 | 11856 ft | 249 kts | 287° |
| 2026-05-07 19:57 | 47.39566 | 18.89142 | 12712 ft | 251 kts | 287° |
| 2026-05-07 19:57 | 47.40174 | 18.86744 | 13551 ft | 254 kts | 287° |
| 2026-05-07 19:57 | 47.40798 | 18.84287 | 14382 ft | 257 kts | 287° |
| 2026-05-07 19:57 | 47.41425 | 18.81821 | 15181 ft | 261 kts | 286° |
| 2026-05-07 19:58 | 47.42061 | 18.79321 | 15995 ft | 263 kts | 285° |
| 2026-05-07 19:58 | 47.42698 | 18.76799 | 16752 ft | 267 kts | 285° |
| 2026-05-07 19:58 | 47.43355 | 18.74209 | 17508 ft | 270 kts | 284° |
| 2026-05-07 19:58 | 47.44007 | 18.71625 | 18236 ft | 274 kts | 284° |
| 2026-05-07 19:59 | 47.44677 | 18.68970 | 18989 ft | 276 kts | 284° |
| 2026-05-07 19:59 | 47.45339 | 18.66344 | 19725 ft | 279 kts | 284° |
| 2026-05-07 19:59 | 47.46014 | 18.63665 | 20438 ft | 282 kts | 284° |
| 2026-05-07 19:59 | 47.46701 | 18.60931 | 21104 ft | 286 kts | 284° |
| 2026-05-07 20:00 | 47.47388 | 18.58207 | 21788 ft | 288 kts | 284° |
| 2026-05-07 20:00 | 47.48085 | 18.55428 | 22465 ft | 291 kts | 284° |
| 2026-05-07 20:00 | 47.48795 | 18.52598 | 23115 ft | 294 kts | 284° |
| 2026-05-07 20:00 | 47.49505 | 18.49772 | 23726 ft | 298 kts | 284° |
| 2026-05-07 20:01 | 47.50228 | 18.46886 | 24391 ft | 300 kts | 284° |
| 2026-05-07 20:01 | 47.50947 | 18.44013 | 25052 ft | 301 kts | 283° |
| 2026-05-07 20:01 | 47.51667 | 18.41126 | 25695 ft | 302 kts | 283° |
| 2026-05-07 20:01 | 47.52397 | 18.38197 | 26273 ft | 305 kts | 283° |
| 2026-05-07 20:02 | 47.53126 | 18.35263 | 26820 ft | 308 kts | 283° |
| 2026-05-07 20:02 | 47.53868 | 18.32288 | 27423 ft | 309 kts | 282° |
| 2026-05-07 20:02 | 47.54609 | 18.29298 | 28036 ft | 310 kts | 282° |
| 2026-05-07 20:02 | 47.55356 | 18.26293 | 28607 ft | 312 kts | 282° |
| 2026-05-07 20:03 | 47.56103 | 18.23266 | 29110 ft | 315 kts | 282° |
| 2026-05-07 20:03 | 47.56856 | 18.20220 | 29623 ft | 318 kts | 282° |
| 2026-05-07 20:03 | 47.57603 | 18.17196 | 30145 ft | 319 kts | 281° |
| 2026-05-07 20:03 | 47.58369 | 18.14090 | 30687 ft | 319 kts | 282° |
| 2026-05-07 20:04 | 47.59124 | 18.11026 | 31197 ft | 319 kts | 281° |
| 2026-05-07 20:04 | 47.59878 | 18.07931 | 31448 ft | 326 kts | 282° |
| 2026-05-07 20:04 | 47.60661 | 18.04749 | 31814 ft | 330 kts | 282° |
| 2026-05-07 20:04 | 47.61444 | 18.01562 | 32301 ft | 329 kts | 282° |
| 2026-05-07 20:05 | 47.62214 | 17.98418 | 32825 ft | 326 kts | 282° |
| 2026-05-07 20:05 | 47.62979 | 17.95299 | 33331 ft | 323 kts | 282° |
| 2026-05-07 20:05 | 47.63738 | 17.92186 | 33783 ft | 322 kts | 283° |
| 2026-05-07 20:05 | 47.64497 | 17.89069 | 34231 ft | 320 kts | 283° |
| 2026-05-07 20:06 | 47.65245 | 17.85999 | 34577 ft | 319 kts | 283° |
| 2026-05-07 20:06 | 47.66003 | 17.82884 | 34862 ft | 321 kts | 283° |
| 2026-05-07 20:06 | 47.66751 | 17.79797 | 35168 ft | 321 kts | 283° |
| 2026-05-07 20:06 | 47.67507 | 17.76680 | 35515 ft | 320 kts | 283° |
| 2026-05-07 20:07 | 47.68249 | 17.73613 | 36083 ft | 320 kts | 284° |
| 2026-05-07 20:07 | 47.69004 | 17.70497 | 36197 ft | 319 kts | 284° |
| 2026-05-07 20:07 | 47.69750 | 17.67406 | 36756 ft | 319 kts | 284° |
| 2026-05-07 20:07 | 47.70496 | 17.64316 | 37074 ft | 319 kts | 284° |
| 2026-05-07 20:08 | 47.71232 | 17.61251 | 37366 ft | 319 kts | 284° |
| 2026-05-07 20:08 | 47.71979 | 17.58139 | 37632 ft | 319 kts | 284° |
| 2026-05-07 20:08 | 47.72728 | 17.55036 | 37895 ft | 320 kts | 285° |
| 2026-05-07 20:08 | 47.73465 | 17.51953 | 38168 ft | 320 kts | 285° |
| 2026-05-07 20:09 | 47.74218 | 17.48810 | 38419 ft | 320 kts | 285° |
| 2026-05-07 20:09 | 47.74954 | 17.45730 | 38646 ft | 321 kts | 285° |
| 2026-05-07 20:09 | 47.75698 | 17.42621 | 38888 ft | 321 kts | 285° |
| 2026-05-07 20:10 | 47.77193 | 17.36355 | 39350 ft | 323 kts | 285° |
| 2026-05-07 20:10 | 47.77929 | 17.33250 | 39607 ft | 322 kts | 285° |
| 2026-05-07 20:10 | 47.78672 | 17.30124 | 39830 ft | 322 kts | 285° |
| 2026-05-07 20:10 | 47.79418 | 17.26979 | 40059 ft | 323 kts | 285° |
| 2026-05-07 20:11 | 47.80161 | 17.23842 | 40321 ft | 322 kts | 285° |
| 2026-05-07 20:11 | 47.80902 | 17.20711 | 40536 ft | 323 kts | 285° |
| 2026-05-07 20:11 | 47.81645 | 17.17550 | 40750 ft | 324 kts | 285° |
| 2026-05-07 20:11 | 47.82389 | 17.14402 | 40986 ft | 324 kts | 285° |
| 2026-05-07 20:12 | 47.83123 | 17.11249 | 41192 ft | 323 kts | 282° |
| 2026-05-07 20:12 | 47.83788 | 17.08072 | 41367 ft | 327 kts | 293° |
| 2026-05-07 20:12 | 47.84860 | 17.05063 | 41540 ft | 328 kts | 292° |
| 2026-05-07 20:12 | 47.85817 | 17.01985 | 41738 ft | 328 kts | 290° |
| 2026-05-07 20:13 | 47.86748 | 16.98879 | 41939 ft | 328 kts | 290° |
| 2026-05-07 20:13 | 47.87666 | 16.95775 | 42143 ft | 328 kts | 290° |
| 2026-05-07 20:13 | 47.88574 | 16.92681 | 42336 ft | 328 kts | 290° |
| 2026-05-07 20:13 | 47.89484 | 16.89557 | 42519 ft | 329 kts | 290° |
| 2026-05-07 20:14 | 47.90396 | 16.86430 | 42699 ft | 329 kts | 290° |
| 2026-05-07 20:14 | 47.91291 | 16.83340 | 42866 ft | 330 kts | 290° |
| 2026-05-07 20:14 | 47.92207 | 16.80187 | 42999 ft | 332 kts | 290° |
| 2026-05-07 20:15 | 47.94062 | 16.73780 | 43018 ft | 343 kts | 290° |
| 2026-05-07 20:15 | 47.95952 | 16.67237 | 43022 ft | 348 kts | 290° |
| 2026-05-07 20:16 | 47.97867 | 16.60590 | 43019 ft | 350 kts | 290° |
| 2026-05-07 20:16 | 47.99796 | 16.53878 | 43027 ft | 352 kts | 290° |
| 2026-05-07 20:17 | 48.01711 | 16.47185 | 43015 ft | 354 kts | 290° |
| 2026-05-07 20:17 | 48.03641 | 16.40428 | 43026 ft | 355 kts | 290° |
| 2026-05-07 20:18 | 48.05575 | 16.33637 | 43031 ft | 356 kts | 289° |
| 2026-05-07 20:18 | 48.07508 | 16.26831 | 43030 ft | 358 kts | 289° |
| 2026-05-07 20:19 | 48.09446 | 16.19981 | 43026 ft | 360 kts | 289° |
| 2026-05-07 20:19 | 48.11394 | 16.13084 | 43022 ft | 361 kts | 289° |
| 2026-05-07 20:20 | 48.13341 | 16.06170 | 43030 ft | 363 kts | 289° |
| 2026-05-07 20:20 | 48.15298 | 15.99201 | 43038 ft | 364 kts | 289° |
| 2026-05-07 20:21 | 48.17240 | 15.92258 | 43039 ft | 365 kts | 289° |
| 2026-05-07 20:21 | 48.19205 | 15.85217 | 43043 ft | 366 kts | 289° |
| 2026-05-07 20:22 | 48.21165 | 15.78180 | 43042 ft | 368 kts | 289° |
| 2026-05-07 20:22 | 48.23119 | 15.71137 | 43046 ft | 369 kts | 289° |
| 2026-05-07 20:23 | 48.25092 | 15.64006 | 43040 ft | 370 kts | 289° |
| 2026-05-07 20:23 | 48.27053 | 15.56897 | 43037 ft | 371 kts | 289° |
| 2026-05-07 20:24 | 48.29012 | 15.49766 | 43035 ft | 371 kts | 289° |
| 2026-05-07 20:24 | 48.30968 | 15.42632 | 43036 ft | 372 kts | 290° |
| 2026-05-07 20:25 | 48.32925 | 15.35474 | 43036 ft | 373 kts | 290° |
| 2026-05-07 20:25 | 48.34879 | 15.28301 | 43044 ft | 373 kts | 289° |
| 2026-05-07 20:26 | 48.36846 | 15.21064 | 43032 ft | 374 kts | 289° |
| 2026-05-07 20:26 | 48.38796 | 15.13858 | 43046 ft | 375 kts | 289° |
| 2026-05-07 20:27 | 48.40758 | 15.06594 | 43043 ft | 375 kts | 289° |
| 2026-05-07 20:27 | 48.42713 | 14.99327 | 43043 ft | 376 kts | 289° |
| 2026-05-07 20:28 | 48.44655 | 14.92089 | 43046 ft | 376 kts | 289° |
| 2026-05-07 20:28 | 48.46610 | 14.84780 | 43046 ft | 377 kts | 289° |
| 2026-05-07 20:29 | 48.48562 | 14.77463 | 43042 ft | 378 kts | 289° |
| 2026-05-07 20:29 | 48.50513 | 14.70126 | 43046 ft | 378 kts | 289° |
| 2026-05-07 20:30 | 48.52452 | 14.62808 | 43042 ft | 378 kts | 289° |
| 2026-05-07 20:30 | 48.54399 | 14.55436 | 43047 ft | 379 kts | 289° |
| 2026-05-07 20:31 | 48.56336 | 14.48075 | 43046 ft | 379 kts | 289° |
| 2026-05-07 20:31 | 48.58284 | 14.40649 | 43047 ft | 380 kts | 289° |
| 2026-05-07 20:32 | 48.60217 | 14.33264 | 43049 ft | 380 kts | 289° |
| 2026-05-07 20:32 | 48.62148 | 14.25860 | 43051 ft | 381 kts | 289° |
| 2026-05-07 20:33 | 48.64095 | 14.18366 | 43053 ft | 382 kts | 289° |
| 2026-05-07 20:33 | 48.66027 | 14.10915 | 43056 ft | 382 kts | 289° |
| 2026-05-07 20:34 | 48.67960 | 14.03423 | 43054 ft | 383 kts | 289° |
| 2026-05-07 20:34 | 48.69882 | 13.95958 | 43052 ft | 384 kts | 289° |
| 2026-05-07 20:35 | 48.71809 | 13.88444 | 43050 ft | 384 kts | 289° |
| 2026-05-07 20:35 | 48.73733 | 13.80913 | 43050 ft | 385 kts | 289° |
| 2026-05-07 20:36 | 48.75651 | 13.73394 | 43054 ft | 385 kts | 289° |
| 2026-05-07 20:36 | 48.77643 | 13.65894 | 43058 ft | 384 kts | 286° |
| 2026-05-07 20:37 | 48.79488 | 13.58277 | 43050 ft | 385 kts | 289° |
| 2026-05-07 20:37 | 48.81383 | 13.50715 | 43049 ft | 385 kts | 289° |
| 2026-05-07 20:38 | 48.83284 | 13.43136 | 43048 ft | 385 kts | 289° |
| 2026-05-07 20:38 | 48.85173 | 13.35585 | 43053 ft | 386 kts | 289° |
| 2026-05-07 20:39 | 48.87075 | 13.27949 | 43053 ft | 386 kts | 288° |
| 2026-05-07 20:39 | 48.88152 | 13.24246 | 43032 ft | 389 kts | 301° |
| 2026-05-07 20:39 | 48.89979 | 13.21194 | 43094 ft | 392 kts | 313° |
| 2026-05-07 20:40 | 48.93822 | 13.15386 | 43053 ft | 393 kts | 312° |
| 2026-05-07 20:40 | 48.97675 | 13.09514 | 43047 ft | 393 kts | 312° |
| 2026-05-07 20:41 | 49.01538 | 13.03619 | 43046 ft | 394 kts | 312° |
| 2026-05-07 20:41 | 49.05384 | 12.97730 | 43049 ft | 394 kts | 312° |
| 2026-05-07 20:42 | 49.09248 | 12.91799 | 43052 ft | 394 kts | 312° |
| 2026-05-07 20:42 | 49.13092 | 12.85890 | 43060 ft | 394 kts | 312° |
| 2026-05-07 20:43 | 49.16946 | 12.79946 | 43067 ft | 394 kts | 312° |
| 2026-05-07 20:43 | 49.20789 | 12.74011 | 43068 ft | 394 kts | 312° |
| 2026-05-07 20:44 | 49.24630 | 12.68064 | 43070 ft | 394 kts | 312° |
| 2026-05-07 20:44 | 49.28458 | 12.62124 | 43068 ft | 394 kts | 312° |
| 2026-05-07 20:45 | 49.32310 | 12.56134 | 43064 ft | 395 kts | 312° |
| 2026-05-07 20:45 | 49.36481 | 12.50633 | 43063 ft | 397 kts | 319° |
| 2026-05-07 20:46 | 49.40786 | 12.45401 | 43061 ft | 397 kts | 319° |
| 2026-05-07 20:46 | 49.45109 | 12.40136 | 43059 ft | 397 kts | 319° |
| 2026-05-07 20:47 | 49.49414 | 12.34880 | 43059 ft | 397 kts | 318° |
| 2026-05-07 20:47 | 49.53724 | 12.29604 | 43066 ft | 397 kts | 319° |
| 2026-05-07 20:48 | 49.58058 | 12.24292 | 43066 ft | 397 kts | 318° |
| 2026-05-07 20:48 | 49.62357 | 12.19004 | 43067 ft | 397 kts | 319° |
| 2026-05-07 20:49 | 49.66679 | 12.13681 | 43065 ft | 397 kts | 319° |
| 2026-05-07 20:49 | 49.71022 | 12.08453 | 43050 ft | 400 kts | 327° |
| 2026-05-07 20:50 | 49.76009 | 12.04641 | 43069 ft | 401 kts | 331° |
| 2026-05-07 20:50 | 49.81013 | 12.00826 | 43065 ft | 402 kts | 331° |
| 2026-05-07 20:51 | 49.86020 | 11.97003 | 43052 ft | 402 kts | 331° |
| 2026-05-07 20:51 | 49.91043 | 11.93157 | 43050 ft | 402 kts | 331° |
| 2026-05-07 20:52 | 49.96041 | 11.89323 | 43049 ft | 402 kts | 331° |
| 2026-05-07 20:52 | 50.01017 | 11.85495 | 43054 ft | 401 kts | 331° |
| 2026-05-07 20:53 | 50.06035 | 11.81629 | 43057 ft | 401 kts | 331° |
| 2026-05-07 20:53 | 50.10992 | 11.77800 | 43061 ft | 401 kts | 331° |
| 2026-05-07 20:54 | 50.15979 | 11.73935 | 43060 ft | 400 kts | 331° |
| 2026-05-07 20:54 | 50.20970 | 11.70061 | 43064 ft | 400 kts | 331° |
| 2026-05-07 20:55 | 50.25919 | 11.66210 | 43065 ft | 399 kts | 331° |
| 2026-05-07 20:55 | 50.30891 | 11.62332 | 43066 ft | 399 kts | 331° |
| 2026-05-07 20:56 | 50.35873 | 11.58438 | 43063 ft | 398 kts | 331° |
| 2026-05-07 20:56 | 50.40787 | 11.54585 | 43054 ft | 398 kts | 331° |
| 2026-05-07 20:57 | 50.45746 | 11.50693 | 43051 ft | 398 kts | 331° |
| 2026-05-07 20:57 | 50.50668 | 11.46818 | 43050 ft | 398 kts | 331° |
| 2026-05-07 20:58 | 50.55633 | 11.42899 | 43055 ft | 397 kts | 331° |
| 2026-05-07 20:58 | 50.60558 | 11.39002 | 43060 ft | 396 kts | 331° |
| 2026-05-07 20:59 | 50.65467 | 11.35111 | 43067 ft | 396 kts | 331° |
| 2026-05-07 20:59 | 50.70380 | 11.31204 | 43072 ft | 396 kts | 330° |
| 2026-05-07 21:00 | 50.75303 | 11.27282 | 43076 ft | 396 kts | 330° |
| 2026-05-07 21:00 | 50.80197 | 11.23373 | 43075 ft | 396 kts | 330° |
| 2026-05-07 21:01 | 50.85103 | 11.19450 | 43082 ft | 395 kts | 330° |
| 2026-05-07 21:01 | 50.89978 | 11.15541 | 43085 ft | 395 kts | 330° |
| 2026-05-07 21:02 | 50.94851 | 11.11618 | 43096 ft | 395 kts | 330° |
| 2026-05-07 21:02 | 50.99737 | 11.07678 | 43095 ft | 395 kts | 330° |
| 2026-05-07 21:03 | 51.04622 | 11.03732 | 43100 ft | 395 kts | 330° |
| 2026-05-07 21:03 | 51.09483 | 10.99796 | 43110 ft | 395 kts | 330° |
| 2026-05-07 21:04 | 51.14357 | 10.95837 | 43124 ft | 394 kts | 330° |
| 2026-05-07 21:04 | 51.19226 | 10.91876 | 43116 ft | 394 kts | 330° |
| 2026-05-07 21:05 | 51.24105 | 10.87896 | 43111 ft | 395 kts | 330° |
| 2026-05-07 21:05 | 51.28967 | 10.83919 | 43113 ft | 395 kts | 330° |
| 2026-05-07 21:06 | 51.33855 | 10.79913 | 43111 ft | 395 kts | 330° |
| 2026-05-07 21:06 | 51.38746 | 10.75894 | 43113 ft | 395 kts | 330° |
| 2026-05-07 21:07 | 51.43622 | 10.71876 | 43109 ft | 395 kts | 330° |
| 2026-05-07 21:07 | 51.48509 | 10.67841 | 43099 ft | 396 kts | 330° |
| 2026-05-07 21:08 | 51.53029 | 10.63126 | 43105 ft | 388 kts | 306° |
| 2026-05-07 21:08 | 51.54294 | 10.59390 | 43117 ft | 382 kts | 288° |
| 2026-05-07 21:08 | 51.54998 | 10.55282 | 43094 ft | 381 kts | 279° |
| 2026-05-07 21:09 | 51.56038 | 10.46986 | 43079 ft | 381 kts | 281° |
| 2026-05-07 21:09 | 51.57165 | 10.38648 | 43080 ft | 382 kts | 281° |
| 2026-05-07 21:10 | 51.58294 | 10.30329 | 43091 ft | 382 kts | 280° |
| 2026-05-07 21:10 | 51.59412 | 10.22050 | 43093 ft | 382 kts | 280° |
| 2026-05-07 21:11 | 51.60534 | 10.13687 | 43097 ft | 383 kts | 280° |
| 2026-05-07 21:11 | 51.62205 | 10.01156 | 43098 ft | 383 kts | 280° |
| 2026-05-07 21:12 | 51.63309 | 9.92803 | 43093 ft | 384 kts | 280° |
| 2026-05-07 21:12 | 51.64408 | 9.84450 | 43092 ft | 384 kts | 280° |
| 2026-05-07 21:13 | 51.65510 | 9.76014 | 43088 ft | 384 kts | 280° |
| 2026-05-07 21:13 | 51.66600 | 9.67631 | 43087 ft | 384 kts | 280° |
| 2026-05-07 21:14 | 51.67685 | 9.59224 | 43085 ft | 384 kts | 279° |
| 2026-05-07 21:14 | 51.67845 | 9.50766 | 43087 ft | 381 kts | 261° |
| 2026-05-07 21:15 | 51.66431 | 9.42606 | 43086 ft | 379 kts | 244° |
| 2026-05-07 21:15 | 51.64139 | 9.35061 | 43090 ft | 379 kts | 245° |
| 2026-05-07 21:16 | 51.61925 | 9.27371 | 43091 ft | 379 kts | 244° |
| 2026-05-07 21:16 | 51.59726 | 9.19698 | 43094 ft | 379 kts | 244° |
| 2026-05-07 21:17 | 51.57520 | 9.12017 | 43091 ft | 380 kts | 245° |
| 2026-05-07 21:17 | 51.55310 | 9.04343 | 43093 ft | 380 kts | 244° |
| 2026-05-07 21:18 | 51.53089 | 8.96658 | 43094 ft | 381 kts | 244° |
| 2026-05-07 21:18 | 51.50864 | 8.88986 | 42995 ft | 382 kts | 244° |
| 2026-05-07 21:19 | 51.49740 | 8.85123 | 42390 ft | 384 kts | 245° |
| 2026-05-07 21:19 | 51.48613 | 8.81257 | 41759 ft | 385 kts | 245° |
| 2026-05-07 21:19 | 51.47478 | 8.77363 | 41088 ft | 385 kts | 245° |
| 2026-05-07 21:19 | 51.46341 | 8.73471 | 40405 ft | 384 kts | 245° |
| 2026-05-07 21:20 | 51.45216 | 8.69629 | 39730 ft | 383 kts | 245° |
| 2026-05-07 21:20 | 51.44104 | 8.65833 | 39050 ft | 381 kts | 245° |
| 2026-05-07 21:20 | 51.42980 | 8.62003 | 38420 ft | 378 kts | 245° |
| 2026-05-07 21:20 | 51.41874 | 8.58240 | 37844 ft | 376 kts | 245° |
| 2026-05-07 21:21 | 51.40777 | 8.54511 | 37415 ft | 370 kts | 245° |
| 2026-05-07 21:21 | 51.39688 | 8.50818 | 36999 ft | 369 kts | 245° |
| 2026-05-07 21:21 | 51.38584 | 8.47076 | 36561 ft | 374 kts | 245° |
| 2026-05-07 21:21 | 51.37477 | 8.43336 | 36089 ft | 378 kts | 245° |
| 2026-05-07 21:22 | 51.36357 | 8.39553 | 35567 ft | 383 kts | 245° |
| 2026-05-07 21:22 | 51.35209 | 8.35683 | 35048 ft | 387 kts | 245° |
| 2026-05-07 21:22 | 51.34050 | 8.31785 | 34430 ft | 388 kts | 245° |
| 2026-05-07 21:22 | 51.32907 | 8.27946 | 33721 ft | 388 kts | 245° |
| 2026-05-07 21:23 | 51.31757 | 8.24096 | 33145 ft | 386 kts | 245° |
| 2026-05-07 21:23 | 51.30596 | 8.20205 | 32684 ft | 383 kts | 245° |
| 2026-05-07 21:23 | 51.29462 | 8.16413 | 32233 ft | 381 kts | 245° |
| 2026-05-07 21:23 | 51.28326 | 8.12616 | 31772 ft | 380 kts | 245° |
| 2026-05-07 21:24 | 51.27185 | 8.08824 | 31238 ft | 380 kts | 245° |
| 2026-05-07 21:24 | 51.26058 | 8.05063 | 30703 ft | 381 kts | 245° |
| 2026-05-07 21:24 | 51.24905 | 8.01233 | 30175 ft | 382 kts | 245° |
| 2026-05-07 21:24 | 51.23764 | 7.97449 | 29666 ft | 382 kts | 245° |
| 2026-05-07 21:25 | 51.22604 | 7.93610 | 29154 ft | 382 kts | 245° |
| 2026-05-07 21:25 | 51.21454 | 7.89810 | 28644 ft | 381 kts | 245° |
| 2026-05-07 21:25 | 51.20316 | 7.86049 | 28138 ft | 379 kts | 245° |
| 2026-05-07 21:25 | 51.19172 | 7.82281 | 27627 ft | 378 kts | 245° |
| 2026-05-07 21:26 | 51.18042 | 7.78562 | 27122 ft | 376 kts | 245° |
| 2026-05-07 21:26 | 51.16904 | 7.74823 | 26666 ft | 374 kts | 245° |
| 2026-05-07 21:26 | 51.15786 | 7.71145 | 26243 ft | 372 kts | 245° |
| 2026-05-07 21:26 | 51.14651 | 7.67433 | 25813 ft | 371 kts | 245° |
| 2026-05-07 21:27 | 51.13525 | 7.63754 | 25287 ft | 369 kts | 245° |
| 2026-05-07 21:27 | 51.12410 | 7.60112 | 24753 ft | 366 kts | 245° |
| 2026-05-07 21:27 | 51.11309 | 7.56525 | 24230 ft | 363 kts | 245° |
| 2026-05-07 21:27 | 51.10211 | 7.52948 | 23754 ft | 359 kts | 245° |
| 2026-05-07 21:28 | 51.09119 | 7.49393 | 23275 ft | 355 kts | 245° |
| 2026-05-07 21:28 | 51.08048 | 7.45916 | 22841 ft | 351 kts | 245° |
| 2026-05-07 21:28 | 51.06988 | 7.42482 | 22413 ft | 346 kts | 245° |
| 2026-05-07 21:28 | 51.05923 | 7.39031 | 21977 ft | 342 kts | 245° |
| 2026-05-07 21:29 | 51.04891 | 7.35695 | 21559 ft | 339 kts | 245° |
| 2026-05-07 21:29 | 51.03844 | 7.32315 | 21080 ft | 337 kts | 244° |
| 2026-05-07 21:29 | 51.02813 | 7.29006 | 20619 ft | 335 kts | 244° |
| 2026-05-07 21:29 | 51.01800 | 7.25734 | 20156 ft | 332 kts | 244° |
| 2026-05-07 21:30 | 51.00782 | 7.22451 | 19686 ft | 330 kts | 244° |
| 2026-05-07 21:30 | 50.99761 | 7.19176 | 19201 ft | 328 kts | 244° |
| 2026-05-07 21:30 | 50.98760 | 7.15967 | 18735 ft | 325 kts | 244° |
| 2026-05-07 21:30 | 50.97767 | 7.12783 | 18327 ft | 323 kts | 244° |
| 2026-05-07 21:31 | 50.96769 | 7.09587 | 17962 ft | 321 kts | 244° |
| 2026-05-07 21:31 | 50.95775 | 7.06410 | 17602 ft | 320 kts | 244° |
| 2026-05-07 21:31 | 50.94784 | 7.03247 | 17160 ft | 318 kts | 244° |
| 2026-05-07 21:31 | 50.93806 | 7.00131 | 16729 ft | 317 kts | 244° |
| 2026-05-07 21:32 | 50.92835 | 6.97039 | 16299 ft | 317 kts | 244° |
| 2026-05-07 21:32 | 50.91843 | 6.93891 | 15858 ft | 316 kts | 244° |
| 2026-05-07 21:32 | 50.90870 | 6.90801 | 15427 ft | 315 kts | 244° |
| 2026-05-07 21:32 | 50.89944 | 6.87864 | 15019 ft | 315 kts | 244° |
| 2026-05-07 21:33 | 50.88961 | 6.84751 | 14580 ft | 313 kts | 244° |
| 2026-05-07 21:33 | 50.87990 | 6.81681 | 14163 ft | 312 kts | 244° |
| 2026-05-07 21:33 | 50.87022 | 6.78624 | 13731 ft | 311 kts | 243° |
| 2026-05-07 21:33 | 50.86056 | 6.75577 | 13354 ft | 308 kts | 244° |
| 2026-05-07 21:34 | 50.85102 | 6.72574 | 12986 ft | 304 kts | 244° |
| 2026-05-07 21:34 | 50.84149 | 6.69572 | 12629 ft | 302 kts | 244° |
| 2026-05-07 21:34 | 50.83277 | 6.66541 | 12256 ft | 299 kts | 255° |
| 2026-05-07 21:34 | 50.83293 | 6.63347 | 11910 ft | 297 kts | 286° |
| 2026-05-07 21:35 | 50.84352 | 6.60554 | 11534 ft | 296 kts | 316° |
| 2026-05-07 21:35 | 50.86034 | 6.58676 | 11075 ft | 297 kts | 323° |
| 2026-05-07 21:35 | 50.87629 | 6.56648 | 10603 ft | 291 kts | 321° |
| 2026-05-07 21:35 | 50.89186 | 6.54646 | 10129 ft | 284 kts | 320° |
| 2026-05-07 21:36 | 50.90692 | 6.52686 | 9701 ft | 278 kts | 320° |
| 2026-05-07 21:36 | 50.92176 | 6.50747 | 9326 ft | 272 kts | 321° |
| 2026-05-07 21:36 | 50.93617 | 6.48865 | 8954 ft | 273 kts | 321° |
| 2026-05-07 21:36 | 50.95084 | 6.46948 | 8582 ft | 274 kts | 321° |
| 2026-05-07 21:37 | 50.96568 | 6.45005 | 8207 ft | 275 kts | 321° |
| 2026-05-07 21:37 | 50.98043 | 6.43074 | 7834 ft | 275 kts | 321° |
| 2026-05-07 21:37 | 50.99498 | 6.41165 | 7515 ft | 273 kts | 321° |
| 2026-05-07 21:37 | 51.00958 | 6.39249 | 7199 ft | 272 kts | 321° |
| 2026-05-07 21:38 | 51.02416 | 6.37334 | 6798 ft | 273 kts | 321° |
| 2026-05-07 21:38 | 51.03882 | 6.35408 | 6398 ft | 274 kts | 321° |
| 2026-05-07 21:38 | 51.05444 | 6.33752 | 5978 ft | 273 kts | 341° |
| 2026-05-07 21:38 | 51.07308 | 6.33608 | 5588 ft | 268 kts | 14° |
| 2026-05-07 21:39 | 51.08908 | 6.34979 | 5198 ft | 262 kts | 35° |
| 2026-05-07 21:39 | 51.10440 | 6.36485 | 4790 ft | 260 kts | 31° |
| 2026-05-07 21:39 | 51.12001 | 6.37981 | 4369 ft | 258 kts | 30° |
| 2026-05-07 21:39 | 51.13535 | 6.39424 | 3941 ft | 256 kts | 30° |
| 2026-05-07 21:40 | 51.15058 | 6.40855 | 3505 ft | 255 kts | 30° |
| 2026-05-07 21:40 | 51.16575 | 6.42282 | 3132 ft | 250 kts | 30° |
| 2026-05-07 21:40 | 51.18047 | 6.43663 | 2956 ft | 240 kts | 31° |
| 2026-05-07 21:40 | 51.19471 | 6.45003 | 2770 ft | 231 kts | 31° |
| 2026-05-07 21:41 | 51.20832 | 6.46284 | 2584 ft | 223 kts | 31° |
| 2026-05-07 21:41 | 51.22143 | 6.47520 | 2397 ft | 215 kts | 31° |
| 2026-05-07 21:41 | 51.23421 | 6.48728 | 2211 ft | 209 kts | 31° |
| 2026-05-07 21:41 | 51.24757 | 6.49460 | 2025 ft | 206 kts | 358° |
| 2026-05-07 21:42 | 51.26011 | 6.48522 | 2005 ft | 199 kts | 315° |
| 2026-05-07 21:42 | 51.27043 | 6.47142 | 1991 ft | 186 kts | 331° |
| 2026-05-07 21:42 | 51.28145 | 6.46188 | 1985 ft | 176 kts | 336° |
| 2026-05-07 21:42 | 51.29230 | 6.45370 | 1983 ft | 167 kts | 338° |
| 2026-05-07 21:43 | 51.30254 | 6.44648 | 1983 ft | 159 kts | 339° |
| 2026-05-07 21:43 | 51.31250 | 6.43960 | 2042 ft | 153 kts | 340° |
| 2026-05-07 21:43 | 51.32241 | 6.43288 | 1999 ft | 151 kts | 339° |
| 2026-05-07 21:43 | 51.33095 | 6.42358 | 1989 ft | 151 kts | 315° |
| 2026-05-07 21:44 | 51.33629 | 6.40878 | 2008 ft | 156 kts | 289° |
| 2026-05-07 21:44 | 51.33714 | 6.39167 | 1986 ft | 157 kts | 262° |
| 2026-05-07 21:44 | 51.33317 | 6.37565 | 1989 ft | 156 kts | 234° |
| 2026-05-07 21:44 | 51.32513 | 6.36405 | 1994 ft | 157 kts | 207° |
| 2026-05-07 21:45 | 51.31471 | 6.36021 | 1989 ft | 155 kts | 170° |
| 2026-05-07 21:45 | 51.30517 | 6.36635 | 1986 ft | 140 kts | 144° |
| 2026-05-07 21:45 | 51.29783 | 6.37540 | 1943 ft | 129 kts | 134° |
| 2026-05-07 21:45 | 51.29136 | 6.38497 | 1844 ft | 124 kts | 130° |
| 2026-05-07 21:46 | 51.28556 | 6.39491 | 1736 ft | 119 kts | 129° |
| 2026-05-07 21:46 | 51.27998 | 6.40471 | 1714 ft | 119 kts | 127° |
| 2026-05-07 21:46 | 51.27455 | 6.41503 | 1624 ft | 124 kts | 125° |
| 2026-05-07 21:46 | 51.26949 | 6.42596 | 1425 ft | 117 kts | 124° |
| 2026-05-07 21:47 | 51.26453 | 6.43628 | 1164 ft | 118 kts | 126° |
| 2026-05-07 21:47 | 51.25961 | 6.44601 | 991 ft | 109 kts | 124° |
| 2026-05-07 21:47 | 51.25496 | 6.45542 | 858 ft | 109 kts | 126° |
| 2026-05-07 21:47 | 51.25006 | 6.46493 | 721 ft | 114 kts | 129° |
| 2026-05-07 21:48 | 51.24504 | 6.47502 | 574 ft | 116 kts | 125° |
| 2026-05-07 21:48 | 51.24007 | 6.48503 | 395 ft | 114 kts | 127° |
| 2026-05-07 21:48 | 51.23524 | 6.49472 | 210 ft | 110 kts | 128° |
| 2026-05-07 21:48 | 51.23070 | 6.50378 | 125 ft | 92 kts | 128° |
| 2026-05-07 21:49 | 51.22840 | 6.50839 | 126 ft | 30 kts | 127° |
| 2026-05-07 21:49 | 51.22744 | 6.51027 | 126 ft | 16 kts | 135° |
| 2026-05-07 21:49 | 51.22693 | 6.51091 | 126 ft | 7 kts | 174° |
| 2026-05-07 21:49 | 51.22642 | 6.51078 | 126 ft | 8 kts | 223° |
| 2026-05-07 21:50 | 51.22635 | 6.50988 | 126 ft | 9 kts | 294° |
| 2026-05-07 21:50 | 51.22677 | 6.50899 | 126 ft | 10 kts | 308° |
| 2026-05-07 21:50 | 51.22722 | 6.50809 | 126 ft | 10 kts | 312° |
| 2026-05-07 21:50 | 51.22768 | 6.50716 | 126 ft | 11 kts | 309° |
| 2026-05-07 21:51 | 51.22819 | 6.50615 | 125 ft | 11 kts | 309° |
| 2026-05-07 21:51 | 51.22864 | 6.50524 | 125 ft | 9 kts | 309° |
| 2026-05-07 21:51 | 51.22907 | 6.50438 | 125 ft | 10 kts | 309° |
| 2026-05-07 21:51 | 51.22947 | 6.50358 | 125 ft | 8 kts | 307° |
| 2026-05-07 21:52 | 51.22989 | 6.50275 | 125 ft | 10 kts | 308° |
| 2026-05-07 21:52 | 51.23034 | 6.50185 | 125 ft | 11 kts | 308° |
| 2026-05-07 21:52 | 51.23085 | 6.50082 | 125 ft | 12 kts | 309° |
| 2026-05-07 21:52 | 51.23140 | 6.49975 | 125 ft | 11 kts | 308° |
| 2026-05-07 21:53 | 51.23164 | 6.49893 | 125 ft | 7 kts | 239° |
| 2026-05-07 21:53 | 51.23158 | 6.49834 | 125 ft | 6 kts | 307° |
| 2026-05-07 21:53 | 51.23187 | 6.49776 | 125 ft | 7 kts | 308° |
| 2026-05-07 21:53 | 51.23219 | 6.49712 | 125 ft | 4 kts | 303° |
| 2026-05-07 21:54 | 51.23213 | 6.49667 | 125 ft | 3 kts | 208° |
| 2026-05-07 21:54 | 51.23208 | 6.49679 | 125 ft | 0 kts | 61° |